Ana Sayfa
METAR-TAF:

METAR-TAF

Havaalanları :

Chapleau, Ontario, Kanada

Enlem: 47-49N, Boylam: 083-21W, yükseklik: 447 m

Güncel hava durumu gözlemi

Rapor saat 20:00 UTC de 28 dakika önce yapıldı.
Rüzgar kuzeybatıdan 9 kt ve 19 kt'a kadar ani rüzgarlar, batı ve kuzey arasında değişken
Sıcaklık 22°C
Nem 29%
Basınç 1014 hPa
Görüş mesafesi: 24.1 km
6500 ft yükseklikte az bulutlu
8000 ft yükseklikte az bulutlu

METAR: CYLD 222000Z 32009G19KT 270V350 15SM FEW065 FEW080 22/03 A2994 RMK CU1AC1 SLP149 DENSITY ALT 2700FT

Saat: 16:28 (20:28 UTC)

Tahmin

Rapor saat 19:38 UTC de 50 dakika önce yapıldı.
Ayın 22'si saat 20 UTC'den ayın 23'si saat 01 UTC'ye kadar geçerli Tahmin
Rüzgar kuzey/kuzeybatıdan 12 kt
Görüş mesafesi: 10 km
5000 ft yükseklikte parçalı bulutlu

TAF: CYLD 221938Z 2220/2301 34012KT P6SM SCT050 RMK NXT FCST WILL BE ISSUED AT 231145Z

4.000'den fazla havaalanı için hava durumu gözlemleri ve tahminleri (METAR ve TAF raporları).

Kullanılabilir istasyonlar harita üzerinde sarı ve kırmızı noktalarla gösterilir.

İstasyonun adını görmek için fareyi noktanın üzerinde gezdirin.

Sonrasında hava gözlem ve tahminlerini görmek için tıklayın.

Haritayı değiştirmek için: yaklaştırmak için siyah artı işaretli yeşil düğmeye ve uzaklaştırmak için de eksi işaretli düğmeye hızla tıklayın; bitişik haritalar için yeşil okları kullanın.


METAR-TAF: